KSAV/SAV METAR and TAF weather

Enter ICAO airport designator
Station Type Date Time Source
KSAV METAR 2022/05/26 03:53 UTC NOAA

KSAV 260353Z 12006KT 10SM BKN240 25/21 A3015 RMK AO2 SLP207 LAST T02500211


Station Type Date Time Source
KSAV Decoded METAR 2022/05/26 03:53 UTC NOAA

SAVANNAH INTERNATIONAL AIRPORT , GA, United States (KSAV) 32-07N 81-12W 14M
May 25, 2022 - 11:53 PM EDT / 2022.05.26 0353 UTC
Wind: from the ESE (120 degrees) at 7 MPH (6 KT):0
Visibility: 10 mile(s):0
Sky conditions: mostly cloudy
Temperature: 77.0 F (25.0 C)
Dew Point: 70.0 F (21.1 C)
Relative Humidity: 78%
Pressure (altimeter): 30.15 in. Hg (1020 hPa)
ob: KSAV 260353Z 12006KT 10SM BKN240 25/21 A3015 RMK AO2 SLP207 LAST T02500211
cycle: 4

Station Type Date Time Source
KSAV TAF 2022/05/25 18:44 UTC NOAA

TAF KSAV 251737Z 2518/2618 15013G19KT P6SM SCT020 BKN200
TEMPO 2518/2519 BKN030
FM260100 13006KT P6SM FEW040 BKN200
FM261300 15009KT P6SM SCT030 BKN050

Example: see airport list